Time;durP1;ratioP1;P1;durP2;ratioP2;P2;SDS_P1;SDS_P2;PMS_P1;PMS_P2;Temp;Humidity;BMP_temperature;BMP_pressure;BME280_temperature;BME280_humidity;BME280_pressure;Samples;Min_cycle;Max_cycle;Signal;HPM_P1;HPM_P2
2021/12/04 00:00:50;;;;;;;481.57;135.75;;;;;;;-3.60;68.47;97502.79;1712268;83;21138;-58
2021/12/04 00:03:15;;;;;;;240.85;64.45;;;;;;;-3.61;68.85;97498.00;1712071;82;21027;-57
2021/12/04 00:05:46;;;;;;;60.73;23.33;;;;;;;-3.62;67.89;97496.38;1712355;81;21949;-57
2021/12/04 00:08:09;;;;;;;47.17;17.57;;;;;;;-3.71;67.97;97499.73;1713386;82;20992;-57
2021/12/04 00:10:35;;;;;;;46.08;21.12;;;;;;;-3.89;68.85;97498.17;1725594;82;20913;-57
2021/12/04 00:13:01;;;;;;;57.20;22.27;;;;;;;-4.05;69.62;97499.86;1718338;82;20880;-57
2021/12/04 00:15:26;;;;;;;73.75;39.50;;;;;;;-4.19;71.20;97507.44;1712271;83;20986;-57
2021/12/04 00:17:52;;;;;;;70.15;27.82;;;;;;;-4.23;70.54;97515.48;1724212;82;21507;-57
2021/12/04 00:20:18;;;;;;;69.42;27.17;;;;;;;-4.24;70.33;97511.20;1736673;82;21019;-58
2021/12/04 00:22:44;;;;;;;56.25;23.55;;;;;;;-4.33;70.91;97499.47;1736725;82;20838;-57
2021/12/04 00:25:10;;;;;;;70.40;28.00;;;;;;;-4.33;70.53;97509.23;1720772;82;21400;-57
2021/12/04 00:27:36;;;;;;;111.92;40.92;;;;;;;-4.45;71.16;97501.03;1708565;82;20899;-57
2021/12/04 00:30:04;;;;;;;51.48;23.42;;;;;;;-4.51;70.86;97496.55;1712231;81;21469;-58
2021/12/04 00:32:34;;;;;;;60.90;23.22;;;;;;;-4.66;72.47;97495.35;1721237;82;21541;-57
2021/12/04 00:35:16;;;;;;;42.03;16.10;;;;;;;-4.67;72.23;97495.55;1736687;82;21213;-57
2021/12/04 00:51:20;;;;;;;41.28;17.12;;;;;;;-4.85;71.87;97494.75;1712028;83;21066;-57
2021/12/04 00:53:47;;;;;;;33.73;17.30;;;;;;;-4.80;72.58;97500.75;1712203;82;21002;-57
2021/12/04 00:56:14;;;;;;;41.65;17.50;;;;;;;-4.86;72.85;97489.97;1712116;83;21562;-57
2021/12/04 01:01:24;;;;;;;43.40;19.15;;;;;;;-4.98;73.64;97500.75;1869149;76;22570;-56
2021/12/04 01:03:49;;;;;;;58.15;22.05;;;;;;;-5.16;73.74;97496.47;1795667;78;20876;-56
2021/12/04 01:06:15;;;;;;;49.77;21.95;;;;;;;-5.25;74.54;97494.98;1781746;80;20986;-56
2021/12/04 01:08:41;;;;;;;51.77;23.30;;;;;;;-5.41;74.99;97495.57;1771688;79;21021;-56
2021/12/04 01:11:07;;;;;;;63.45;26.00;;;;;;;-5.43;74.11;97479.61;1814610;78;21783;-56
2021/12/04 01:13:33;;;;;;;55.10;24.43;;;;;;;-5.55;75.66;97471.91;1782538;78;21324;-56
2021/12/04 01:15:59;;;;;;;57.85;23.42;;;;;;;-5.63;74.82;97469.41;1766823;81;21330;-56
2021/12/04 01:18:25;;;;;;;67.05;27.55;;;;;;;-5.68;74.46;97476.06;1774783;79;21623;-56
2021/12/04 01:20:51;;;;;;;61.05;25.20;;;;;;;-5.71;74.97;97472.49;1781828;80;26318;-56
2021/12/04 01:23:17;;;;;;;50.63;25.27;;;;;;;-5.74;75.13;97476.81;1778523;79;25881;-56
2021/12/04 01:25:44;;;;;;;55.38;24.43;;;;;;;-5.74;75.00;97482.09;1790739;80;20862;-56
2021/12/04 01:28:10;;;;;;;54.27;23.25;;;;;;;-5.76;75.70;97474.05;1793512;79;21007;-56
2021/12/04 01:30:36;;;;;;;53.42;24.15;;;;;;;-5.82;76.43;97473.48;1793332;80;21544;-56
2021/12/04 01:33:01;;;;;;;47.48;19.32;;;;;;;-5.80;75.93;97475.45;1793257;79;26492;-56
2021/12/04 01:35:27;;;;;;;47.93;19.55;;;;;;;-5.83;74.14;97463.94;1793222;80;26004;-56
2021/12/04 01:37:53;;;;;;;52.48;22.87;;;;;;;-5.91;75.44;97466.73;1793256;80;20913;-56
2021/12/04 01:40:19;;;;;;;62.90;26.02;;;;;;;-5.93;76.27;97474.03;1793228;80;20874;-56
2021/12/04 01:42:45;;;;;;;69.87;28.00;;;;;;;-6.01;77.35;97474.46;1807327;77;21730;-56
2021/12/04 01:45:12;;;;;;;69.50;27.52;;;;;;;-6.10;78.26;97476.09;1805592;78;20989;-56
2021/12/04 01:47:38;;;;;;;72.42;29.52;;;;;;;-6.11;77.83;97472.64;1800103;77;21016;-56
2021/12/04 01:50:05;;;;;;;69.27;28.52;;;;;;;-6.09;76.38;97469.31;1825739;78;21204;-56
2021/12/04 01:52:31;;;;;;;74.30;30.80;;;;;;;-6.05;75.84;97481.13;1825699;77;21318;-56
2021/12/04 01:54:57;;;;;;;63.20;27.67;;;;;;;-5.99;76.43;97487.46;1825869;78;21540;-56
2021/12/04 01:57:23;;;;;;;64.65;30.00;;;;;;;-5.97;76.36;97479.69;1815145;78;21071;-56
2021/12/04 01:59:50;;;;;;;53.70;22.37;;;;;;;-6.03;77.24;97480.44;1793239;79;20996;-56
2021/12/04 02:02:16;;;;;;;58.63;24.23;;;;;;;-6.09;77.16;97481.68;1793174;79;20996;-56
2021/12/04 02:04:42;;;;;;;51.73;22.60;;;;;;;-6.10;77.17;97480.05;1793572;78;21550;-56
2021/12/04 02:07:10;;;;;;;64.58;24.43;;;;;;;-6.10;76.00;97458.95;1793178;80;21359;-56
2021/12/04 02:09:36;;;;;;;48.78;23.27;;;;;;;-6.13;77.10;97466.74;1784415;80;21117;-55
2021/12/04 02:12:07;;;;;;;57.95;23.07;;;;;;;-6.17;76.52;97451.47;1764794;78;21013;-56
2021/12/04 02:14:34;;;;;;;61.58;31.02;;;;;;;-6.15;76.17;97450.77;1824993;77;21527;-56
2021/12/04 02:17:00;;;;;;;55.00;23.60;;;;;;;-6.09;76.18;97438.97;1816331;78;21066;-56
2021/12/04 02:19:26;;;;;;;49.60;20.40;;;;;;;-6.10;76.28;97449.72;1791493;78;21390;-56
2021/12/04 02:21:52;;;;;;;42.58;19.42;;;;;;;-6.06;75.59;97437.80;1792714;80;21472;-56
2021/12/04 02:24:18;;;;;;;41.92;18.00;;;;;;;-6.02;76.21;97437.22;1784199;79;26304;-56
2021/12/04 02:26:46;;;;;;;46.58;18.90;;;;;;;-6.03;77.18;97428.17;1792673;79;20995;-56
2021/12/04 02:29:12;;;;;;;44.27;19.52;;;;;;;-6.01;76.32;97428.30;1765113;78;21480;-56
2021/12/04 02:31:39;;;;;;;48.48;21.95;;;;;;;-6.09;77.32;97412.59;1824893;78;21503;-56
2021/12/04 02:34:06;;;;;;;51.28;21.60;;;;;;;-6.14;77.28;97416.31;1825025;77;20966;-56
2021/12/04 02:36:32;;;;;;;47.43;22.05;;;;;;;-6.25;77.87;97415.48;1825031;78;21498;-56
2021/12/04 02:38:58;;;;;;;46.48;19.90;;;;;;;-6.29;76.81;97406.32;1824897;77;21072;-56
2021/12/04 02:41:24;;;;;;;54.73;20.15;;;;;;;-6.38;77.20;97408.77;1825213;78;21707;-56
2021/12/04 02:43:49;;;;;;;61.35;23.67;;;;;;;-6.42;77.26;97414.09;1823358;77;21463;-56
2021/12/04 02:46:16;;;;;;;58.42;23.85;;;;;;;-6.55;78.62;97412.95;1825185;78;26745;-56
2021/12/04 02:48:43;;;;;;;57.88;22.32;;;;;;;-6.55;78.05;97406.87;1784379;78;22058;-56
2021/12/04 02:51:10;;;;;;;60.65;25.57;;;;;;;-6.55;77.18;97403.73;1781382;80;21066;-56
2021/12/04 02:53:36;;;;;;;60.48;27.50;;;;;;;-6.64;79.31;97388.22;1789709;79;21008;-56
2021/12/04 02:56:04;;;;;;;62.33;25.15;;;;;;;-6.58;78.86;97392.25;1792632;80;21535;-56
2021/12/04 02:58:32;;;;;;;49.33;24.87;;;;;;;-6.55;79.15;97398.45;1792764;79;20965;-56
2021/12/04 03:01:02;;;;;;;63.25;24.23;;;;;;;-6.60;79.05;97392.91;1792845;79;20981;-57
2021/12/04 03:03:30;;;;;;;54.77;23.67;;;;;;;-6.70;79.91;97386.31;1810580;77;20997;-56
2021/12/04 03:05:56;;;;;;;50.52;25.60;;;;;;;-6.71;78.79;97377.59;1825421;78;21456;-56
2021/12/04 03:08:22;;;;;;;54.50;24.52;;;;;;;-6.67;78.07;97388.57;1751676;80;21547;-56
2021/12/04 03:10:48;;;;;;;50.43;20.88;;;;;;;-6.66;78.74;97387.09;1764301;79;26742;-56
2021/12/04 03:13:17;;;;;;;47.48;23.67;;;;;;;-6.63;78.23;97389.34;1779789;80;25873;-57
2021/12/04 03:15:45;;;;;;;50.33;22.42;;;;;;;-6.64;77.95;97386.40;1792862;80;21048;-58
2021/12/04 03:18:11;;;;;;;44.18;23.83;;;;;;;-6.66;77.48;97387.09;1770959;80;21027;-59
2021/12/04 03:20:44;;;;;;;51.33;21.07;;;;;;;-6.68;78.23;97384.30;1790259;80;21732;-58
2021/12/04 03:23:11;;;;;;;32.10;14.78;;;;;;;-6.67;77.38;97380.66;1790526;78;21629;-58
2021/12/04 03:25:33;;;;;;;49.90;19.55;;;;;;;-6.83;79.81;97380.41;1787568;79;22241;-59
2021/12/04 03:28:04;;;;;;;46.18;25.25;;;;;;;-6.82;77.77;97381.54;1792955;78;20841;-59
2021/12/04 03:30:42;;;;;;;43.98;20.05;;;;;;;-6.91;79.45;97377.38;1781348;79;21015;-59
2021/12/04 03:40:57;;;;;;;62.78;23.77;;;;;;;-7.07;80.92;97369.69;1792656;80;22049;-57
2021/12/04 03:43:22;;;;;;;64.33;26.63;;;;;;;-7.02;78.72;97380.97;1792622;79;21462;-57
2021/12/04 03:45:54;;;;;;;65.70;26.25;;;;;;;-7.11;80.18;97382.39;1792696;80;21565;-57
2021/12/04 03:50:57;;;;;;;70.60;29.25;;;;;;;-7.11;79.67;97374.99;1825008;78;21099;-57
2021/12/04 03:53:23;;;;;;;56.05;22.22;;;;;;;-7.15;80.46;97375.88;1781817;78;21426;-57
2021/12/04 03:55:52;;;;;;;64.65;27.42;;;;;;;-7.14;79.99;97378.81;1766253;81;20999;-57
2021/12/04 03:58:18;;;;;;;47.85;21.07;;;;;;;-7.15;80.83;97376.38;1784837;80;21428;-56
2021/12/04 04:00:44;;;;;;;47.80;22.62;;;;;;;-7.17;79.59;97363.89;1792550;78;20992;-56
2021/12/04 04:03:10;;;;;;;49.75;19.85;;;;;;;-7.16;79.57;97370.29;1787452;80;25907;-57
2021/12/04 04:05:36;;;;;;;51.68;22.73;;;;;;;-7.13;80.36;97369.91;1792570;80;28190;-56
2021/12/04 04:08:02;;;;;;;47.30;20.27;;;;;;;-7.12;78.94;97370.23;1792849;80;20866;-56
2021/12/04 04:10:28;;;;;;;68.10;30.77;;;;;;;-7.13;78.58;97369.09;1811331;78;21728;-57
2021/12/04 04:12:54;;;;;;;84.17;35.58;;;;;;;-7.13;79.87;97354.11;1810255;78;26957;-57
2021/12/04 04:15:21;;;;;;;89.20;36.98;;;;;;;-7.09;79.34;97363.80;1781276;80;25933;-56
2021/12/04 04:17:47;;;;;;;78.55;37.45;;;;;;;-6.98;79.21;97363.81;1777813;79;21012;-57
2021/12/04 04:20:19;;;;;;;52.03;24.95;;;;;;;-6.87;80.01;97352.28;1781322;80;21316;-56
2021/12/04 04:22:46;;;;;;;56.42;24.02;;;;;;;-6.78;79.38;97369.30;1780954;80;21728;-57
2021/12/04 04:25:13;;;;;;;43.02;20.92;;;;;;;-6.85;80.24;97352.09;1789185;80;21062;-56
2021/12/04 04:27:39;;;;;;;44.93;18.92;;;;;;;-6.82;80.09;97367.55;1803271;77;21061;-57
2021/12/04 04:30:11;;;;;;;38.70;16.37;;;;;;;-6.89;80.06;97361.38;1825127;78;21001;-57
2021/12/04 04:32:37;;;;;;;50.60;20.62;;;;;;;-6.87;79.29;97359.38;1811287;78;21067;-57
2021/12/04 04:35:09;;;;;;;37.53;19.57;;;;;;;-7.06;80.11;97358.66;1792694;79;21714;-57
2021/12/04 04:37:45;;;;;;;50.25;22.32;;;;;;;-6.99;79.61;97357.73;1798341;77;21088;-57
2021/12/04 05:13:01;;;;;;;76.45;31.40;;;;;;;-6.62;79.18;97311.91;1769771;80;21043;-57
2021/12/04 05:15:37;;;;;;;53.38;24.92;;;;;;;-6.67;78.58;97308.19;1790854;79;21028;-57
2021/12/04 05:18:06;;;;;;;37.20;18.87;;;;;;;-6.80;80.56;97292.27;1794781;78;21028;-57
2021/12/04 05:20:25;;;;;;;44.40;19.20;;;;;;;-6.75;79.10;97298.62;1789622;80;20996;-58
2021/12/04 05:22:48;;;;;;;41.53;18.12;;;;;;;-6.80;79.34;97291.77;1800903;77;20966;-57
2021/12/04 05:25:14;;;;;;;41.77;19.00;;;;;;;-6.84;79.36;97282.08;1803059;78;20853;-57
2021/12/04 05:27:42;;;;;;;57.48;21.85;;;;;;;-6.88;80.30;97279.53;1794848;78;21464;-57
2021/12/04 05:30:09;;;;;;;44.77;21.60;;;;;;;-6.83;79.31;97282.93;1792684;80;21079;-57
2021/12/04 05:32:34;;;;;;;30.57;17.10;;;;;;;-6.88;80.22;97268.98;1798357;77;21601;-57
2021/12/04 05:35:00;;;;;;;33.55;15.70;;;;;;;-6.85;79.41;97270.42;1825334;78;20889;-57
2021/12/04 05:37:26;;;;;;;41.08;18.90;;;;;;;-6.88;79.14;97265.54;1808153;78;21026;-57
2021/12/04 05:39:52;;;;;;;35.13;18.35;;;;;;;-6.87;79.11;97265.34;1792703;79;21000;-57
2021/12/04 05:42:18;;;;;;;40.58;19.52;;;;;;;-6.93;80.59;97267.91;1792369;79;26962;-57
2021/12/04 05:44:45;;;;;;;38.05;17.32;;;;;;;-6.86;80.34;97265.66;1792861;80;25902;-57
2021/12/04 05:47:22;;;;;;;31.87;16.15;;;;;;;-6.73;79.99;97258.89;1792490;80;20958;-58
2021/12/04 05:52:20;;;;;;;34.13;16.10;;;;;;;-6.50;80.25;97249.45;1792788;78;22252;-57
2021/12/04 05:57:10;;;;;;;65.92;25.57;;;;;;;-6.38;79.28;97243.48;1817546;78;26384;-57
2021/12/04 05:59:36;;;;;;;41.53;20.15;;;;;;;-6.30;79.34;97240.70;1781177;79;21015;-57
2021/12/04 06:02:02;;;;;;;34.23;16.20;;;;;;;-6.26;79.25;97239.29;1788903;78;21629;-57
2021/12/04 06:04:28;;;;;;;30.35;14.40;;;;;;;-6.29;79.48;97234.92;1824910;77;21292;-56
2021/12/04 06:06:54;;;;;;;31.07;17.77;;;;;;;-6.29;79.46;97231.78;1822250;78;20921;-57
2021/12/04 06:09:20;;;;;;;43.02;19.50;;;;;;;-6.31;79.96;97217.16;1814702;77;21551;-57
2021/12/04 06:11:46;;;;;;;116.95;43.98;;;;;;;-6.24;79.81;97225.91;1760825;80;20873;-57
2021/12/04 06:14:13;;;;;;;42.78;18.45;;;;;;;-6.28;79.69;97221.53;1788672;80;21557;-57
2021/12/04 06:16:39;;;;;;;42.33;17.67;;;;;;;-6.23;79.37;97206.47;1793367;78;21544;-57
2021/12/04 06:24:34;;;;;;;68.37;23.52;;;;;;;-6.04;78.50;97203.13;1790696;79;21513;-57
2021/12/04 06:26:59;;;;;;;33.25;12.50;;;;;;;-6.03;78.22;97199.47;1782936;80;20900;-57
2021/12/04 06:29:25;;;;;;;108.50;48.87;;;;;;;-5.94;78.17;97191.41;1821812;77;20960;-57
2021/12/04 06:31:52;;;;;;;78.67;28.75;;;;;;;-5.95;78.19;97199.02;1825119;78;23176;-57
2021/12/04 06:34:18;;;;;;;66.10;27.62;;;;;;;-5.93;78.75;97195.66;1824958;77;20974;-57
2021/12/04 06:36:44;;;;;;;59.65;25.00;;;;;;;-5.93;79.71;97200.44;1825202;78;20944;-57
2021/12/04 06:39:10;;;;;;;47.40;21.40;;;;;;;-5.88;79.26;97192.73;1800036;77;21018;-57
2021/12/04 06:41:36;;;;;;;52.60;23.35;;;;;;;-5.85;78.44;97191.01;1792620;80;22247;-57
2021/12/04 06:44:02;;;;;;;53.40;23.00;;;;;;;-5.86;78.27;97182.78;1792627;80;20850;-57
2021/12/04 06:46:29;;;;;;;63.98;25.32;;;;;;;-5.81;79.14;97181.70;1792798;79;22337;-57
2021/12/04 06:49:13;;;;;;;47.13;21.25;;;;;;;-5.73;79.15;97178.05;1792533;80;21478;-57
2021/12/04 06:51:38;;;;;;;54.00;27.17;;;;;;;-5.66;78.81;97176.26;1792149;79;21640;-59
2021/12/04 06:56:33;;;;;;;54.55;23.02;;;;;;;-5.54;79.44;97172.56;1792674;80;20873;-59
2021/12/04 06:58:56;;;;;;;46.25;21.87;;;;;;;-5.41;78.85;97173.91;1823478;77;20962;-59
2021/12/04 07:01:22;;;;;;;45.05;21.40;;;;;;;-5.43;78.58;97166.70;1825425;78;21569;-59
2021/12/04 07:03:49;;;;;;;44.10;19.95;;;;;;;-5.41;78.49;97169.95;1825054;77;20980;-59
2021/12/04 07:06:15;;;;;;;183.72;67.97;;;;;;;-5.41;78.72;97171.27;1825270;78;22373;-57
2021/12/04 07:08:40;;;;;;;63.65;29.60;;;;;;;-5.39;78.60;97177.97;1797155;78;23256;-57
2021/12/04 07:11:07;;;;;;;69.12;30.92;;;;;;;-5.27;78.73;97172.13;1759192;80;20842;-57
2021/12/04 07:13:33;;;;;;;198.10;68.25;;;;;;;-5.25;79.10;97173.55;1784786;80;21498;-57
2021/12/04 07:16:04;;;;;;;146.20;56.50;;;;;;;-5.12;78.81;97171.45;1792863;78;21078;-57
2021/12/04 07:18:30;;;;;;;68.10;31.80;;;;;;;-5.09;78.91;97168.91;1811049;77;21109;-57
2021/12/04 07:20:56;;;;;;;57.70;28.65;;;;;;;-5.02;79.02;97172.38;1825108;78;27196;-57
2021/12/04 07:23:22;;;;;;;54.83;24.80;;;;;;;-4.94;78.76;97165.06;1824860;77;20898;-57
2021/12/04 07:25:48;;;;;;;49.23;23.57;;;;;;;-4.90;78.48;97161.50;1799272;78;20901;-57
2021/12/04 07:28:14;;;;;;;77.20;42.50;;;;;;;-4.89;78.49;97154.68;1799665;78;21058;-57
2021/12/04 07:30:40;;;;;;;48.33;23.98;;;;;;;-4.92;78.01;97154.28;1773027;80;21513;-57
2021/12/04 07:33:06;;;;;;;86.90;41.63;;;;;;;-4.86;78.30;97153.48;1792406;80;21290;-57
2021/12/04 07:35:32;;;;;;;53.42;25.27;;;;;;;-4.96;78.10;97147.25;1792869;80;20877;-57
2021/12/04 07:38:00;;;;;;;41.55;21.62;;;;;;;-4.79;78.17;97150.81;1794734;78;20858;-57
2021/12/04 07:40:25;;;;;;;54.98;27.40;;;;;;;-4.69;78.08;97152.06;1781264;80;21118;-57
2021/12/04 07:42:51;;;;;;;76.55;36.53;;;;;;;-4.63;77.73;97147.25;1795683;77;22131;-57
2021/12/04 07:45:17;;;;;;;66.20;35.63;;;;;;;-4.59;77.69;97137.91;1825179;78;20839;-57
2021/12/04 07:47:43;;;;;;;78.15;43.98;;;;;;;-4.46;77.58;97148.16;1806217;78;21726;-57
2021/12/04 07:50:09;;;;;;;76.72;38.02;;;;;;;-4.39;77.50;97147.64;1781033;80;21140;-57
2021/12/04 07:52:37;;;;;;;107.30;49.30;;;;;;;-4.36;76.74;97132.19;1793122;78;21636;-57
2021/12/04 07:55:05;;;;;;;105.15;48.80;;;;;;;-4.27;77.25;97140.72;1792712;79;22075;-57
2021/12/04 07:57:31;;;;;;;110.48;48.73;;;;;;;-4.12;77.63;97129.36;1800099;78;21070;-57
2021/12/04 07:59:57;;;;;;;87.88;43.00;;;;;;;-4.12;77.46;97130.69;1792703;80;21103;-57
2021/12/04 08:02:23;;;;;;;92.27;48.40;;;;;;;-4.06;76.91;97119.27;1802421;77;20862;-57
2021/12/04 08:04:49;;;;;;;159.80;77.37;;;;;;;-3.94;77.30;97123.39;1802583;78;20968;-57
2021/12/04 08:07:15;;;;;;;170.30;81.67;;;;;;;-3.93;77.17;97125.05;1817501;77;21126;-57
2021/12/04 08:09:41;;;;;;;130.57;63.28;;;;;;;-3.82;77.26;97119.59;1808756;78;21116;-57
2021/12/04 08:12:09;;;;;;;148.95;68.22;;;;;;;-3.74;76.88;97110.91;1777168;80;20850;-57
2021/12/04 08:14:36;;;;;;;159.72;75.25;;;;;;;-3.75;76.77;97114.58;1789730;78;21021;-57
2021/12/04 08:17:02;;;;;;;181.15;70.62;;;;;;;-3.72;76.51;97116.80;1806320;78;21008;-57
2021/12/04 08:19:28;;;;;;;208.93;79.80;;;;;;;-3.65;76.31;97104.05;1811844;77;21621;-57
2021/12/04 08:21:54;;;;;;;129.45;64.22;;;;;;;-3.47;76.73;97094.36;1811548;78;21072;-57
2021/12/04 08:24:20;;;;;;;144.60;75.37;;;;;;;-3.40;76.32;97096.97;1772270;78;21027;-57
2021/12/04 08:26:47;;;;;;;189.15;81.65;;;;;;;-3.33;76.18;97095.09;1787819;78;20950;-57
2021/12/04 08:29:13;;;;;;;127.92;61.13;;;;;;;-3.31;74.94;97094.88;1818455;77;21058;-57
2021/12/04 08:31:39;;;;;;;131.55;52.00;;;;;;;-3.20;75.46;97088.37;1792651;78;21481;-57
2021/12/04 08:34:04;;;;;;;99.60;43.45;;;;;;;-3.13;75.25;97087.00;1818042;77;21717;-57
2021/12/04 08:36:32;;;;;;;77.37;33.53;;;;;;;-2.97;75.63;97090.96;1787070;80;20948;-57
2021/12/04 08:39:01;;;;;;;329.32;125.70;;;;;;;-2.93;73.23;97092.14;1772711;80;21545;-57
2021/12/04 08:41:27;;;;;;;149.20;62.45;;;;;;;-2.88;73.85;97092.31;1796958;78;20950;-57
2021/12/04 08:43:54;;;;;;;142.40;59.50;;;;;;;-2.69;74.39;97100.61;1789927;78;21687;-57
2021/12/04 08:46:22;;;;;;;114.15;55.95;;;;;;;-2.49;74.90;97103.06;1781530;78;20983;-57
2021/12/04 08:48:50;;;;;;;126.90;60.38;;;;;;;-2.27;75.16;97098.97;1808431;77;20992;-57
2021/12/04 08:51:18;;;;;;;100.62;46.48;;;;;;;-2.12;74.95;97097.29;1783404;79;21016;-57
2021/12/04 08:53:45;;;;;;;127.72;58.63;;;;;;;-1.99;74.85;97094.47;1812197;77;21014;-57
2021/12/04 08:56:11;;;;;;;170.15;74.75;;;;;;;-1.88;74.44;97095.59;1781223;80;21707;-57
2021/12/04 08:58:39;;;;;;;157.82;66.00;;;;;;;-1.82;74.26;97093.86;1811353;77;20826;-57
2021/12/04 09:01:05;;;;;;;169.82;78.83;;;;;;;-1.78;74.24;97087.90;1824961;78;20985;-57
2021/12/04 09:03:35;;;;;;;159.37;75.70;;;;;;;-1.81;73.97;97089.66;1823752;77;21502;-57
2021/12/04 09:06:02;;;;;;;242.13;114.37;;;;;;;-1.78;74.18;97087.09;1825249;78;21009;-57
2021/12/04 09:08:28;;;;;;;117.77;61.42;;;;;;;-1.84;73.36;97077.35;1799754;78;21429;-57
2021/12/04 09:10:56;;;;;;;207.65;97.42;;;;;;;-1.82;73.97;97077.93;1805940;78;21486;-57
2021/12/04 09:13:22;;;;;;;84.20;40.83;;;;;;;-1.81;73.14;97074.23;1793505;77;21476;-57
2021/12/04 09:15:48;;;;;;;104.63;52.05;;;;;;;-1.72;73.43;97072.89;1779596;78;20923;-57
2021/12/04 09:18:14;;;;;;;127.78;55.33;;;;;;;-1.74;72.43;97067.00;1804297;77;21071;-57
2021/12/04 09:20:41;;;;;;;104.60;41.25;;;;;;;-1.73;73.07;97068.09;1800030;78;21146;-57
2021/12/04 09:23:14;;;;;;;119.05;60.45;;;;;;;-1.64;73.48;97063.80;1777453;77;20968;-57
2021/12/04 09:25:38;;;;;;;83.42;41.98;;;;;;;-1.79;72.39;97049.61;1784714;78;21077;-55
2021/12/04 09:28:28;;;;;;;126.87;54.88;;;;;;;-1.77;72.34;97054.98;1806514;78;20974;-57
2021/12/04 09:30:53;;;;;;;145.23;64.77;;;;;;;-1.60;72.99;97045.06;1805296;78;20982;-57
2021/12/04 10:03:06;;;;;;;79.35;35.10;;;;;;;-0.39;71.37;97001.11;1771319;77;21499;-56
2021/12/04 10:05:45;;;;;;;66.47;32.85;;;;;;;-0.22;71.80;96995.34;1823096;78;20985;-57
2021/12/04 10:16:19;;;;;;;73.87;32.70;;;;;;;0.11;70.31;96984.00;1735454;80;21058;-57
2021/12/04 10:18:49;;;;;;;98.58;45.35;;;;;;;0.07;66.74;96986.84;1779159;78;20997;-57
2021/12/04 10:21:35;;;;;;;84.15;39.63;;;;;;;0.14;69.75;96986.17;1743881;81;21540;-57
2021/12/04 10:34:43;;;;;;;117.70;48.92;;;;;;;0.38;66.99;96951.43;1825577;78;20874;-57
2021/12/04 10:37:13;;;;;;;78.92;38.58;;;;;;;0.49;69.27;96950.55;1817861;78;20979;-57
2021/12/04 10:39:39;;;;;;;80.30;36.23;;;;;;;0.60;69.48;96947.52;1784460;78;21016;-57
2021/12/04 10:42:12;;;;;;;94.20;42.35;;;;;;;0.69;69.41;96953.56;1764701;78;21379;-57
2021/12/04 10:44:42;;;;;;;112.20;49.60;;;;;;;0.80;69.03;96950.00;1775790;79;20999;-57
2021/12/04 10:47:12;;;;;;;105.43;50.92;;;;;;;0.94;68.69;96946.48;1777555;78;20978;-58
2021/12/04 10:52:49;;;;;;;62.33;28.35;;;;;;;1.15;69.22;96943.57;1824951;78;21148;-57
2021/12/04 10:55:14;;;;;;;75.52;31.15;;;;;;;1.21;67.79;96936.45;1819898;78;20966;-57
2021/12/04 11:00:32;;;;;;;79.62;35.05;;;;;;;1.48;67.89;96928.00;1779315;80;21024;-56
2021/12/04 11:02:50;;;;;;;77.45;35.20;;;;;;;1.58;68.05;96918.77;1803159;77;21049;-57
2021/12/04 11:22:30;;;;;;;52.40;27.22;;;;;;;2.33;63.08;96869.05;1770717;77;21007;-57
2021/12/04 11:25:17;;;;;;;68.25;32.90;;;;;;;2.37;63.12;96870.14;1805907;78;21066;-57
2021/12/04 11:36:07;;;;;;;116.80;50.58;;;;;;;2.57;61.25;96849.45;1784299;80;21040;-56
2021/12/04 11:43:22;;;;;;;205.77;69.05;;;;;;;2.54;62.13;96849.41;1810245;77;20993;-57
2021/12/04 11:48:39;;;;;;;138.25;51.65;;;;;;;2.65;61.68;96846.30;1787671;78;20996;-57
2021/12/04 11:51:21;;;;;;;248.03;85.65;;;;;;;2.71;59.50;96841.23;1792720;80;21125;-57
2021/12/04 11:53:49;;;;;;;101.05;40.17;;;;;;;2.81;59.78;96847.98;1790438;78;21035;-56
2021/12/04 11:56:21;;;;;;;83.75;28.10;;;;;;;2.90;60.00;96848.30;1766074;81;21066;-57
2021/12/04 11:58:48;;;;;;;85.70;30.20;;;;;;;2.94;56.46;96844.59;1810505;78;21716;-57
2021/12/04 12:01:30;;;;;;;53.65;25.77;;;;;;;2.95;55.33;96840.85;1825008;78;21033;-57
2021/12/04 12:03:56;;;;;;;41.60;17.95;;;;;;;2.99;56.06;96846.78;1793473;78;21463;-56
2021/12/04 12:06:32;;;;;;;122.70;52.73;;;;;;;3.01;57.05;96847.86;1801585;79;21046;-57
2021/12/04 12:09:14;;;;;;;83.40;41.85;;;;;;;2.88;52.71;96835.72;1785441;78;20980;-57
2021/12/04 12:11:58;;;;;;;48.25;24.45;;;;;;;2.89;56.02;96829.84;1766722;80;21013;-56
2021/12/04 12:14:37;;;;;;;57.33;29.37;;;;;;;2.78;50.88;96824.44;1820749;77;21052;-57
2021/12/04 12:17:02;;;;;;;37.83;19.32;;;;;;;2.90;55.42;96819.41;1806522;78;21045;-57
2021/12/04 12:19:36;;;;;;;29.63;17.82;;;;;;;2.87;53.84;96819.40;1782569;78;21050;-57
2021/12/04 12:22:04;;;;;;;34.38;18.75;;;;;;;2.86;50.93;96809.77;1783240;78;20950;-57
2021/12/04 12:36:03;;;;;;;27.58;13.22;;;;;;;2.95;53.75;96791.34;1791373;79;21016;-57
2021/12/04 12:38:52;;;;;;;18.70;9.80;;;;;;;2.95;53.53;96794.83;1793895;78;21531;-56
2021/12/04 12:41:26;;;;;;;22.50;11.08;;;;;;;3.00;55.33;96786.83;1792523;80;21001;-57
2021/12/04 12:44:27;;;;;;;49.60;24.30;;;;;;;3.00;55.88;96784.69;1815306;77;20997;-56
2021/12/04 12:47:05;;;;;;;50.92;22.62;;;;;;;3.05;55.21;96792.73;1821815;78;21009;-57
2021/12/04 12:49:44;;;;;;;158.42;53.58;;;;;;;3.06;55.73;96784.97;1766331;80;21188;-57
2021/12/04 12:52:25;;;;;;;329.77;112.65;;;;;;;3.08;56.32;96793.02;1779832;78;21389;-57
2021/12/04 12:55:08;;;;;;;200.32;68.37;;;;;;;3.09;56.39;96789.28;1792483;79;20977;-57
2021/12/04 12:57:39;;;;;;;165.52;54.90;;;;;;;3.14;56.68;96787.67;1793993;78;21120;-57
2021/12/04 13:14:18;;;;;;;68.47;36.33;;;;;;;3.39;53.29;96781.88;1769758;80;20995;-57
2021/12/04 13:16:58;;;;;;;69.10;34.67;;;;;;;3.45;51.00;96766.63;1767853;80;21504;-57
2021/12/04 13:19:25;;;;;;;74.05;35.25;;;;;;;3.52;51.16;96769.06;1792398;79;21567;-56
2021/12/04 13:21:55;;;;;;;36.68;19.10;;;;;;;3.55;51.27;96770.67;1796172;78;21408;-57
2021/12/04 13:24:27;;;;;;;57.75;29.85;;;;;;;3.58;48.02;96770.13;1816977;77;21039;-57
2021/12/04 13:26:55;;;;;;;53.10;26.62;;;;;;;3.59;49.22;96774.95;1784654;80;21035;-57
2021/12/04 13:29:25;;;;;;;113.72;51.00;;;;;;;3.57;49.41;96775.22;1822295;77;21045;-57
2021/12/04 13:31:56;;;;;;;57.93;38.63;;;;;;;3.56;49.01;96768.80;1807228;78;21462;-57
2021/12/04 13:34:27;;;;;;;120.45;79.40;;;;;;;3.56;46.59;96768.26;1822179;77;20975;-57
2021/12/04 13:36:54;;;;;;;52.75;35.78;;;;;;;3.56;48.17;96773.61;1824948;78;20973;-57
2021/12/04 13:39:20;;;;;;;82.75;44.05;;;;;;;3.57;47.43;96775.75;1824826;77;21090;-57
2021/12/04 13:41:47;;;;;;;177.20;93.90;;;;;;;3.61;46.63;96770.16;1822753;78;21465;-57
2021/12/04 13:44:16;;;;;;;158.68;93.03;;;;;;;3.58;47.85;96774.15;1792397;80;21121;-57
2021/12/04 13:46:55;;;;;;;902.48;527.40;;;;;;;3.58;48.36;96775.48;1792743;80;21063;-57
2021/12/04 13:49:26;;;;;;;;;;;;;;;3.57;48.54;96773.08;1802527;77;21020;-58
2021/12/04 13:51:56;;;;;;;87.37;54.42;;;;;;;3.56;49.24;96778.17;1790306;79;20154;-57
2021/12/04 13:54:24;;;;;;;152.93;55.55;;;;;;;3.52;48.92;96777.10;1790270;80;21479;-57
2021/12/04 13:56:50;;;;;;;66.47;29.85;;;;;;;3.48;48.81;96774.66;1792668;80;21390;-57
2021/12/04 13:59:26;;;;;;;132.30;39.23;;;;;;;3.45;48.63;96776.00;1772547;80;20916;-57
2021/12/04 14:01:51;;;;;;;63.52;28.55;;;;;;;3.42;49.78;96786.42;1794707;78;20965;-57
2021/12/04 14:04:18;;;;;;;121.02;43.87;;;;;;;3.37;50.28;96784.55;1785907;78;20857;-57
2021/12/04 14:06:56;;;;;;;151.05;50.45;;;;;;;3.32;50.65;96788.54;1780797;80;21500;-57
2021/12/04 14:09:32;;;;;;;123.47;55.08;;;;;;;3.29;50.87;96791.75;1796486;78;21708;-57
2021/12/04 14:11:58;;;;;;;91.60;41.80;;;;;;;3.23;51.07;96795.47;1794749;79;20999;-57
2021/12/04 14:14:27;;;;;;;118.13;67.10;;;;;;;3.16;50.94;96799.72;1780020;79;21022;-57
2021/12/04 14:16:54;;;;;;;94.30;57.60;;;;;;;3.04;50.79;96802.63;1780961;80;21536;-56
2021/12/04 14:19:24;;;;;;;132.10;60.17;;;;;;;2.92;51.27;96795.89;1767430;79;21003;-57
2021/12/04 14:22:06;;;;;;;95.90;46.00;;;;;;;2.86;51.60;96814.31;1769010;80;21422;-57
2021/12/04 14:24:43;;;;;;;116.05;60.95;;;;;;;2.77;52.24;96811.33;1789769;80;21035;-57
2021/12/04 14:27:23;;;;;;;66.33;32.83;;;;;;;2.69;52.59;96829.20;1794885;78;21471;-57